Mountain Brook, South Carolina
Current Conditions -  °F | °C
As of 8:21 PM on Sunday 23 Nov 2014 (Local Time) from KCUB Reporting Station
Thunderstorm Thunderstorm  
Wind Chill: 67°   Ceiling: 6500
Heat Index: 67°   Visibility: 7mi
Dew Point: 64°   Wind: 7mph
Humidity: 90%   Direction: 190°S
Pressure: 29.84"   Gusts: NA
Location:  33.9488°N, 80.9462°W
Report Text: KCUB 240121Z AUTO 19006KT 7SM VCTS -RA SCT015 BKN065 OVC085 19/18 A2984 RMK AO2 PK WND 20036/0110 LTG DSNT NE-SE TSE10 P0057 T01940178
Loading
Personal Weather Stations






























Interactive Weather Map New forecast layout! Learn more

10-Day Weather Forecast

Advertisements
Track Severe Weather on mobile